sensor_id;sensor_type;location;lat;lon;timestamp;pressure;altitude;pressure_sealevel;temperature;humidity
37420;BME280;47344;52.374;4.816;2023-01-19T00:00:41;99814.0;;;4.82;100.0
37420;BME280;47344;52.374;4.816;2023-01-19T00:02:19;99816.0;;;4.96;100.0
37420;BME280;47344;52.374;4.816;2023-01-19T00:05:34;99828.0;;;4.92;100.0
37420;BME280;47344;52.374;4.816;2023-01-19T00:07:10;99835.0;;;5.0;100.0
37420;BME280;47344;52.374;4.816;2023-01-19T00:08:49;99823.0;;;4.83;100.0
37420;BME280;47344;52.374;4.816;2023-01-19T00:12:01;99823.0;;;4.79;100.0
37420;BME280;47344;52.374;4.816;2023-01-19T00:13:38;99831.0;;;4.88;100.0
37420;BME280;47344;52.374;4.816;2023-01-19T00:15:14;99836.0;;;4.91;100.0
37420;BME280;47344;52.374;4.816;2023-01-19T00:18:28;99850.0;;;4.91;100.0
37420;BME280;47344;52.374;4.816;2023-01-19T00:20:05;99842.0;;;4.75;100.0
37420;BME280;47344;52.374;4.816;2023-01-19T00:21:42;99837.0;;;4.71;100.0
37420;BME280;47344;52.374;4.816;2023-01-19T00:23:19;99830.0;;;4.79;100.0
37420;BME280;47344;52.374;4.816;2023-01-19T00:26:31;99828.0;;;4.95;100.0
37420;BME280;47344;52.374;4.816;2023-01-19T00:28:08;99835.0;;;4.89;100.0
37420;BME280;47344;52.374;4.816;2023-01-19T00:29:45;99833.0;;;4.88;100.0
37420;BME280;47344;52.374;4.816;2023-01-19T00:32:57;99830.0;;;4.88;100.0
37420;BME280;47344;52.374;4.816;2023-01-19T00:34:38;99839.0;;;4.74;100.0
37420;BME280;47344;52.374;4.816;2023-01-19T00:36:24;99837.0;;;4.72;100.0
37420;BME280;47344;52.374;4.816;2023-01-19T00:38:00;99831.0;;;4.78;100.0
37420;BME280;47344;52.374;4.816;2023-01-19T00:41:14;99831.0;;;4.74;100.0
37420;BME280;47344;52.374;4.816;2023-01-19T00:42:51;99837.0;;;4.83;100.0
37420;BME280;47344;52.374;4.816;2023-01-19T00:44:28;99844.0;;;4.78;100.0
37420;BME280;47344;52.374;4.816;2023-01-19T00:47:41;99847.0;;;4.79;100.0
37420;BME280;47344;52.374;4.816;2023-01-19T00:49:17;99859.0;;;4.82;100.0
37420;BME280;47344;52.374;4.816;2023-01-19T00:50:53;99852.0;;;4.82;100.0
37420;BME280;47344;52.374;4.816;2023-01-19T00:52:30;99845.0;;;4.87;100.0
37420;BME280;47344;52.374;4.816;2023-01-19T00:55:45;99841.0;;;4.91;100.0
37420;BME280;47344;52.374;4.816;2023-01-19T00:57:21;99840.0;;;4.99;100.0
37420;BME280;47344;52.374;4.816;2023-01-19T00:58:58;99846.0;;;5.04;100.0
37420;BME280;47344;52.374;4.816;2023-01-19T01:02:11;99843.0;;;5.03;100.0
37420;BME280;47344;52.374;4.816;2023-01-19T01:03:48;99850.0;;;5.09;100.0
37420;BME280;47344;52.374;4.816;2023-01-19T01:05:24;99858.0;;;5.14;100.0
37420;BME280;47344;52.374;4.816;2023-01-19T01:08:36;99855.0;;;5.2;100.0
37420;BME280;47344;52.374;4.816;2023-01-19T01:10:14;99852.0;;;5.23;100.0
37420;BME280;47344;52.374;4.816;2023-01-19T01:11:51;99869.0;;;5.3;100.0
37420;BME280;47344;52.374;4.816;2023-01-19T01:13:27;99872.0;;;5.25;100.0
37420;BME280;47344;52.374;4.816;2023-01-19T01:16:43;99884.0;;;5.07;100.0
37420;BME280;47344;52.374;4.816;2023-01-19T01:18:20;99871.0;;;5.07;100.0
37420;BME280;47344;52.374;4.816;2023-01-19T01:19:57;99873.0;;;4.95;100.0
37420;BME280;47344;52.374;4.816;2023-01-19T01:23:11;99885.0;;;4.97;100.0
37420;BME280;47344;52.374;4.816;2023-01-19T01:24:48;99912.0;;;4.89;100.0
37420;BME280;47344;52.374;4.816;2023-01-19T01:26:24;99885.0;;;4.82;100.0
37420;BME280;47344;52.374;4.816;2023-01-19T01:29:45;99893.0;;;4.84;100.0
37420;BME280;47344;52.374;4.816;2023-01-19T01:31:23;99908.0;;;4.82;100.0
37420;BME280;47344;52.374;4.816;2023-01-19T01:33:00;99908.0;;;4.82;100.0
37420;BME280;47344;52.374;4.816;2023-01-19T01:34:36;99909.0;;;4.86;100.0
37420;BME280;47344;52.374;4.816;2023-01-19T01:37:48;99914.0;;;4.97;100.0
37420;BME280;47344;52.374;4.816;2023-01-19T01:39:25;99918.0;;;4.96;100.0
37420;BME280;47344;52.374;4.816;2023-01-19T01:41:02;99911.0;;;4.82;100.0
37420;BME280;47344;52.374;4.816;2023-01-19T01:44:43;99914.0;;;4.83;100.0
37420;BME280;47344;52.374;4.816;2023-01-19T01:46:21;99906.0;;;4.75;100.0
37420;BME280;47344;52.374;4.816;2023-01-19T01:48:00;99903.0;;;4.95;100.0
37420;BME280;47344;52.374;4.816;2023-01-19T01:49:40;99917.0;;;4.79;100.0
37420;BME280;47344;52.374;4.816;2023-01-19T01:54:50;99934.0;;;4.84;100.0
37420;BME280;47344;52.374;4.816;2023-01-19T01:56:31;99934.0;;;4.86;100.0
37420;BME280;47344;52.374;4.816;2023-01-19T01:58:10;99949.0;;;4.79;100.0
37420;BME280;47344;52.374;4.816;2023-01-19T01:59:48;99957.0;;;4.78;100.0
37420;BME280;47344;52.374;4.816;2023-01-19T02:04:19;99959.0;;;4.7;100.0
37420;BME280;47344;52.374;4.816;2023-01-19T02:06:00;99967.0;;;4.59;100.0
37420;BME280;47344;52.374;4.816;2023-01-19T02:15:05;99972.0;;;4.04;100.0
37420;BME280;47344;52.374;4.816;2023-01-19T02:16:41;99969.0;;;4.12;100.0
37420;BME280;47344;52.374;4.816;2023-01-19T02:18:18;99960.0;;;4.18;100.0
37420;BME280;47344;52.374;4.816;2023-01-19T02:21:37;99962.0;;;4.2;100.0
37420;BME280;47344;52.374;4.816;2023-01-19T02:23:29;99968.0;;;4.41;100.0
37420;BME280;47344;52.374;4.816;2023-01-19T02:25:12;99967.0;;;4.42;100.0
37420;BME280;47344;52.374;4.816;2023-01-19T02:26:49;99967.0;;;4.53;100.0
37420;BME280;47344;52.374;4.816;2023-01-19T02:30:05;99952.0;;;4.49;100.0
37420;BME280;47344;52.374;4.816;2023-01-19T02:31:44;99953.0;;;4.71;100.0
37420;BME280;47344;52.374;4.816;2023-01-19T02:33:20;99949.0;;;4.78;100.0
37420;BME280;47344;52.374;4.816;2023-01-19T02:36:37;99941.0;;;4.61;100.0
37420;BME280;47344;52.374;4.816;2023-01-19T02:38:15;99942.0;;;4.78;100.0
37420;BME280;47344;52.374;4.816;2023-01-19T02:39:55;99945.0;;;5.03;100.0
37420;BME280;47344;52.374;4.816;2023-01-19T02:41:37;99944.0;;;5.16;100.0
37420;BME280;47344;52.374;4.816;2023-01-19T02:44:55;99951.0;;;5.07;100.0
37420;BME280;47344;52.374;4.816;2023-01-19T02:46:31;99958.0;;;5.05;100.0
37420;BME280;47344;52.374;4.816;2023-01-19T02:48:08;99972.0;;;4.84;100.0
37420;BME280;47344;52.374;4.816;2023-01-19T02:49:44;99970.0;;;4.83;100.0
37420;BME280;47344;52.374;4.816;2023-01-19T02:53:15;99965.0;;;4.89;100.0
37420;BME280;47344;52.374;4.816;2023-01-19T02:55:03;99960.0;;;4.83;100.0
37420;BME280;47344;52.374;4.816;2023-01-19T02:56:54;99965.0;;;4.88;100.0
37420;BME280;47344;52.374;4.816;2023-01-19T02:59:53;99971.0;;;4.92;100.0
37420;BME280;47344;52.374;4.816;2023-01-19T03:01:43;99965.0;;;5.01;100.0
37420;BME280;47344;52.374;4.816;2023-01-19T03:03:30;99970.0;;;5.0;100.0
37420;BME280;47344;52.374;4.816;2023-01-19T03:05:20;99971.0;;;4.87;100.0
37420;BME280;47344;52.374;4.816;2023-01-19T03:07:07;99978.0;;;4.86;100.0
37420;BME280;47344;52.374;4.816;2023-01-19T03:08:49;99972.0;;;4.99;100.0
37420;BME280;47344;52.374;4.816;2023-01-19T03:12:25;99977.0;;;4.95;100.0
37420;BME280;47344;52.374;4.816;2023-01-19T03:14:10;99983.0;;;5.0;100.0
37420;BME280;47344;52.374;4.816;2023-01-19T03:15:54;99985.0;;;4.95;100.0
37420;BME280;47344;52.374;4.816;2023-01-19T03:17:33;99987.0;;;4.92;100.0
37420;BME280;47344;52.374;4.816;2023-01-19T03:19:13;99990.0;;;4.95;100.0
37420;BME280;47344;52.374;4.816;2023-01-19T03:22:36;99990.0;;;4.92;100.0
37420;BME280;47344;52.374;4.816;2023-01-19T03:24:15;99993.0;;;4.82;100.0
37420;BME280;47344;52.374;4.816;2023-01-19T03:25:54;99991.0;;;4.87;100.0
37420;BME280;47344;52.374;4.816;2023-01-19T03:27:35;99996.0;;;4.82;100.0
37420;BME280;47344;52.374;4.816;2023-01-19T03:30:57;99996.0;;;4.95;100.0
37420;BME280;47344;52.374;4.816;2023-01-19T03:34:23;100005.0;;;4.97;100.0
37420;BME280;47344;52.374;4.816;2023-01-19T03:36:05;100007.0;;;4.83;100.0
37420;BME280;47344;52.374;4.816;2023-01-19T03:37:47;100008.0;;;4.91;100.0
37420;BME280;47344;52.374;4.816;2023-01-19T03:41:07;100008.0;;;5.03;100.0
37420;BME280;47344;52.374;4.816;2023-01-19T03:42:47;100010.0;;;4.91;100.0
37420;BME280;47344;52.374;4.816;2023-01-19T03:44:27;100016.0;;;4.99;100.0
37420;BME280;47344;52.374;4.816;2023-01-19T03:47:44;100020.0;;;4.89;100.0
37420;BME280;47344;52.374;4.816;2023-01-19T03:49:20;100015.0;;;4.95;100.0
37420;BME280;47344;52.374;4.816;2023-01-19T03:50:56;100013.0;;;4.76;100.0
37420;BME280;47344;52.374;4.816;2023-01-19T03:52:34;100015.0;;;4.83;100.0
37420;BME280;47344;52.374;4.816;2023-01-19T03:55:47;100020.0;;;4.83;100.0
37420;BME280;47344;52.374;4.816;2023-01-19T03:57:25;100021.0;;;4.91;100.0
37420;BME280;47344;52.374;4.816;2023-01-19T03:59:04;100026.0;;;4.99;100.0
37420;BME280;47344;52.374;4.816;2023-01-19T04:02:16;100026.0;;;5.01;100.0
37420;BME280;47344;52.374;4.816;2023-01-19T04:03:53;100025.0;;;5.16;100.0
37420;BME280;47344;52.374;4.816;2023-01-19T04:05:29;100027.0;;;5.26;100.0
37420;BME280;47344;52.374;4.816;2023-01-19T04:07:07;100024.0;;;5.38;100.0
37420;BME280;47344;52.374;4.816;2023-01-19T04:10:23;100024.0;;;5.43;100.0
37420;BME280;47344;52.374;4.816;2023-01-19T04:12:01;100030.0;;;5.63;100.0
37420;BME280;47344;52.374;4.816;2023-01-19T04:13:37;100032.0;;;5.64;100.0
37420;BME280;47344;52.374;4.816;2023-01-19T04:16:51;100033.0;;;5.74;100.0
37420;BME280;47344;52.374;4.816;2023-01-19T04:18:27;100033.0;;;5.92;99.09
37420;BME280;47344;52.374;4.816;2023-01-19T04:20:05;100042.0;;;5.98;97.98
37420;BME280;47344;52.374;4.816;2023-01-19T04:21:42;100042.0;;;5.98;98.23
37420;BME280;47344;52.374;4.816;2023-01-19T04:24:54;100050.0;;;6.01;98.04
37420;BME280;47344;52.374;4.816;2023-01-19T04:26:30;100056.0;;;5.92;99.14
37420;BME280;47344;52.374;4.816;2023-01-19T04:28:07;100041.0;;;5.9;99.26
37420;BME280;47344;52.374;4.816;2023-01-19T04:31:19;100051.0;;;5.8;99.18
37420;BME280;47344;52.374;4.816;2023-01-19T04:32:58;100053.0;;;5.93;99.4
37420;BME280;47344;52.374;4.816;2023-01-19T04:34:34;100063.0;;;5.92;99.41
37420;BME280;47344;52.374;4.816;2023-01-19T04:37:47;100060.0;;;5.88;99.06
37420;BME280;47344;52.374;4.816;2023-01-19T04:39:22;100069.0;;;5.95;99.2
37420;BME280;47344;52.374;4.816;2023-01-19T04:40:59;100072.0;;;5.94;99.29
37420;BME280;47344;52.374;4.816;2023-01-19T04:42:35;100076.0;;;6.01;99.78
37420;BME280;47344;52.374;4.816;2023-01-19T04:45:48;100075.0;;;5.92;100.0
37420;BME280;47344;52.374;4.816;2023-01-19T04:47:24;100074.0;;;5.86;99.25
37420;BME280;47344;52.374;4.816;2023-01-19T04:49:00;100078.0;;;5.79;98.5
37420;BME280;47344;52.374;4.816;2023-01-19T04:52:14;100071.0;;;5.81;97.8
37420;BME280;47344;52.374;4.816;2023-01-19T04:53:50;100070.0;;;5.78;96.8
37420;BME280;47344;52.374;4.816;2023-01-19T04:55:26;100073.0;;;5.73;96.27
37420;BME280;47344;52.374;4.816;2023-01-19T04:58:39;100073.0;;;5.76;96.04
37420;BME280;47344;52.374;4.816;2023-01-19T05:00:16;100080.0;;;5.81;96.03
37420;BME280;47344;52.374;4.816;2023-01-19T05:01:55;100088.0;;;5.76;95.84
37420;BME280;47344;52.374;4.816;2023-01-19T05:03:32;100081.0;;;5.78;96.08
37420;BME280;47344;52.374;4.816;2023-01-19T05:06:45;100087.0;;;5.77;96.01
37420;BME280;47344;52.374;4.816;2023-01-19T05:08:21;100089.0;;;5.78;95.68
37420;BME280;47344;52.374;4.816;2023-01-19T05:09:57;100085.0;;;5.89;95.62
37420;BME280;47344;52.374;4.816;2023-01-19T05:13:09;100091.0;;;6.0;95.63
37420;BME280;47344;52.374;4.816;2023-01-19T05:14:45;100085.0;;;5.94;95.77
37420;BME280;47344;52.374;4.816;2023-01-19T05:16:22;100087.0;;;6.04;95.03
37420;BME280;47344;52.374;4.816;2023-01-19T05:19:34;100090.0;;;6.08;94.76
37420;BME280;47344;52.374;4.816;2023-01-19T05:21:10;100094.0;;;6.1;94.4
37420;BME280;47344;52.374;4.816;2023-01-19T05:22:48;100092.0;;;6.13;93.59
37420;BME280;47344;52.374;4.816;2023-01-19T05:26:01;100092.0;;;6.0;93.72
37420;BME280;47344;52.374;4.816;2023-01-19T05:27:39;100092.0;;;6.06;93.56
37420;BME280;47344;52.374;4.816;2023-01-19T05:29:15;100108.0;;;6.07;93.24
37420;BME280;47344;52.374;4.816;2023-01-19T05:30:51;100101.0;;;6.0;93.08
37420;BME280;47344;52.374;4.816;2023-01-19T05:34:04;100105.0;;;5.98;92.39
37420;BME280;47344;52.374;4.816;2023-01-19T05:35:40;100112.0;;;5.95;92.22
37420;BME280;47344;52.374;4.816;2023-01-19T05:37:16;100108.0;;;6.0;92.09
37420;BME280;47344;52.374;4.816;2023-01-19T05:40:29;100117.0;;;6.0;92.37
37420;BME280;47344;52.374;4.816;2023-01-19T05:42:05;100111.0;;;6.07;92.27
37420;BME280;47344;52.374;4.816;2023-01-19T05:43:41;100116.0;;;6.0;92.42
37420;BME280;47344;52.374;4.816;2023-01-19T05:46:53;100123.0;;;6.07;91.99
37420;BME280;47344;52.374;4.816;2023-01-19T05:48:29;100121.0;;;6.01;91.76
37420;BME280;47344;52.374;4.816;2023-01-19T05:50:06;100124.0;;;5.92;91.06
37420;BME280;47344;52.374;4.816;2023-01-19T05:51:44;100130.0;;;5.98;90.69
37420;BME280;47344;52.374;4.816;2023-01-19T05:54:56;100134.0;;;5.94;89.68
37420;BME280;47344;52.374;4.816;2023-01-19T05:56:32;100124.0;;;6.02;89.77
37420;BME280;47344;52.374;4.816;2023-01-19T05:58:09;100125.0;;;5.93;89.2
37420;BME280;47344;52.374;4.816;2023-01-19T06:01:21;100133.0;;;5.97;89.02
37420;BME280;47344;52.374;4.816;2023-01-19T06:02:59;100132.0;;;6.02;88.74
37420;BME280;47344;52.374;4.816;2023-01-19T06:04:36;100130.0;;;6.12;88.32
37420;BME280;47344;52.374;4.816;2023-01-19T06:07:50;100137.0;;;5.97;87.98
37420;BME280;47344;52.374;4.816;2023-01-19T06:09:26;100139.0;;;6.09;88.23
37420;BME280;47344;52.374;4.816;2023-01-19T06:11:04;100138.0;;;6.05;88.08
37420;BME280;47344;52.374;4.816;2023-01-19T06:12:41;100137.0;;;6.01;87.59
37420;BME280;47344;52.374;4.816;2023-01-19T06:17:33;100143.0;;;5.93;86.9
37420;BME280;47344;52.374;4.816;2023-01-19T06:22:22;100152.0;;;5.98;86.5
37420;BME280;47344;52.374;4.816;2023-01-19T06:23:58;100147.0;;;6.07;86.37
37420;BME280;47344;52.374;4.816;2023-01-19T06:25:34;100147.0;;;6.03;86.87
37420;BME280;47344;52.374;4.816;2023-01-19T06:27:10;100150.0;;;5.96;87.85
37420;BME280;47344;52.374;4.816;2023-01-19T06:30:26;100151.0;;;5.94;87.96
37420;BME280;47344;52.374;4.816;2023-01-19T06:32:03;100153.0;;;6.04;88.36
37420;BME280;47344;52.374;4.816;2023-01-19T06:33:40;100158.0;;;5.98;88.9
37420;BME280;47344;52.374;4.816;2023-01-19T06:36:53;100161.0;;;5.93;89.05
37420;BME280;47344;52.374;4.816;2023-01-19T06:38:29;100164.0;;;5.96;89.25
37420;BME280;47344;52.374;4.816;2023-01-19T06:40:07;100173.0;;;5.98;89.32
37420;BME280;47344;52.374;4.816;2023-01-19T06:43:21;100173.0;;;6.08;89.52
37420;BME280;47344;52.374;4.816;2023-01-19T06:44:57;100177.0;;;5.87;89.57
37420;BME280;47344;52.374;4.816;2023-01-19T06:46:34;100184.0;;;6.01;89.64
37420;BME280;47344;52.374;4.816;2023-01-19T06:48:10;100190.0;;;6.13;89.98
37420;BME280;47344;52.374;4.816;2023-01-19T06:51:24;100196.0;;;6.12;89.62
37420;BME280;47344;52.374;4.816;2023-01-19T06:53:01;100198.0;;;5.98;89.46
37420;BME280;47344;52.374;4.816;2023-01-19T06:54:37;100202.0;;;6.06;89.66
37420;BME280;47344;52.374;4.816;2023-01-19T06:57:55;100202.0;;;6.0;89.82
37420;BME280;47344;52.374;4.816;2023-01-19T06:59:31;100201.0;;;6.02;90.61
37420;BME280;47344;52.374;4.816;2023-01-19T07:01:08;100198.0;;;5.96;90.99
37420;BME280;47344;52.374;4.816;2023-01-19T07:02:45;100207.0;;;6.1;90.97
37420;BME280;47344;52.374;4.816;2023-01-19T07:05:57;100214.0;;;6.07;90.62
37420;BME280;47344;52.374;4.816;2023-01-19T07:07:39;100220.0;;;5.96;90.51
37420;BME280;47344;52.374;4.816;2023-01-19T07:09:16;100221.0;;;6.05;90.33
37420;BME280;47344;52.374;4.816;2023-01-19T07:12:34;100228.0;;;6.19;89.96
37420;BME280;47344;52.374;4.816;2023-01-19T07:14:11;100225.0;;;5.92;88.97
37420;BME280;47344;52.374;4.816;2023-01-19T07:15:47;100230.0;;;5.79;89.02
37420;BME280;47344;52.374;4.816;2023-01-19T07:17:23;100238.0;;;5.91;89.27
37420;BME280;47344;52.374;4.816;2023-01-19T07:20:36;100243.0;;;5.87;88.49
37420;BME280;47344;52.374;4.816;2023-01-19T07:22:12;100249.0;;;5.87;87.87
37420;BME280;47344;52.374;4.816;2023-01-19T07:23:50;100250.0;;;5.79;86.69
37420;BME280;47344;52.374;4.816;2023-01-19T07:27:03;100256.0;;;5.85;86.33
37420;BME280;47344;52.374;4.816;2023-01-19T07:28:40;100253.0;;;5.8;85.81
37420;BME280;47344;52.374;4.816;2023-01-19T07:30:17;100263.0;;;5.78;84.77
37420;BME280;47344;52.374;4.816;2023-01-19T07:33:31;100257.0;;;5.65;84.25
37420;BME280;47344;52.374;4.816;2023-01-19T07:35:07;100258.0;;;5.74;84.54
37420;BME280;47344;52.374;4.816;2023-01-19T07:36:44;100262.0;;;5.88;84.3
37420;BME280;47344;52.374;4.816;2023-01-19T07:38:21;100267.0;;;5.72;83.72
37420;BME280;47344;52.374;4.816;2023-01-19T07:41:33;100270.0;;;5.57;82.4
37420;BME280;47344;52.374;4.816;2023-01-19T07:43:09;100268.0;;;5.49;81.84
37420;BME280;47344;52.374;4.816;2023-01-19T07:44:45;100268.0;;;5.59;82.08
37420;BME280;47344;52.374;4.816;2023-01-19T07:48:00;100267.0;;;5.64;81.42
37420;BME280;47344;52.374;4.816;2023-01-19T07:49:37;100270.0;;;5.64;81.02
37420;BME280;47344;52.374;4.816;2023-01-19T07:51:17;100278.0;;;5.57;80.33
37420;BME280;47344;52.374;4.816;2023-01-19T07:54:31;100283.0;;;5.5;80.27
37420;BME280;47344;52.374;4.816;2023-01-19T07:56:07;100290.0;;;5.6;80.8
37420;BME280;47344;52.374;4.816;2023-01-19T07:57:47;100297.0;;;5.65;81.06
37420;BME280;47344;52.374;4.816;2023-01-19T07:59:24;100291.0;;;5.63;81.55
37420;BME280;47344;52.374;4.816;2023-01-19T08:02:41;100303.0;;;5.54;83.77
37420;BME280;47344;52.374;4.816;2023-01-19T08:04:18;100314.0;;;5.49;85.62
37420;BME280;47344;52.374;4.816;2023-01-19T08:05:56;100316.0;;;5.51;86.88
37420;BME280;47344;52.374;4.816;2023-01-19T08:09:11;100312.0;;;5.46;87.84
37420;BME280;47344;52.374;4.816;2023-01-19T08:12:25;100317.0;;;5.3;87.61
37420;BME280;47344;52.374;4.816;2023-01-19T08:14:01;100324.0;;;5.42;87.63
37420;BME280;47344;52.374;4.816;2023-01-19T08:17:14;100328.0;;;5.3;87.33
37420;BME280;47344;52.374;4.816;2023-01-19T08:18:51;100343.0;;;5.23;86.83
37420;BME280;47344;52.374;4.816;2023-01-19T08:20:28;100335.0;;;5.28;87.26
37420;BME280;47344;52.374;4.816;2023-01-19T08:23:40;100340.0;;;5.23;86.07
37420;BME280;47344;52.374;4.816;2023-01-19T08:25:17;100341.0;;;5.23;84.65
37420;BME280;47344;52.374;4.816;2023-01-19T08:26:57;100346.0;;;5.33;81.67
37420;BME280;47344;52.374;4.816;2023-01-19T08:28:35;100346.0;;;5.48;81.69
37420;BME280;47344;52.374;4.816;2023-01-19T08:31:48;100345.0;;;5.51;81.63
37420;BME280;47344;52.374;4.816;2023-01-19T08:33:24;100355.0;;;5.61;81.45
37420;BME280;47344;52.374;4.816;2023-01-19T08:35:01;100357.0;;;5.66;82.22
37420;BME280;47344;52.374;4.816;2023-01-19T08:38:14;100358.0;;;5.71;82.06
37420;BME280;47344;52.374;4.816;2023-01-19T08:39:53;100360.0;;;5.5;81.98
37420;BME280;47344;52.374;4.816;2023-01-19T08:41:29;100364.0;;;5.64;82.03
37420;BME280;47344;52.374;4.816;2023-01-19T08:44:46;100365.0;;;5.68;82.71
37420;BME280;47344;52.374;4.816;2023-01-19T08:46:22;100367.0;;;5.66;82.79
37420;BME280;47344;52.374;4.816;2023-01-19T08:47:59;100369.0;;;5.61;82.46
37420;BME280;47344;52.374;4.816;2023-01-19T08:49:36;100374.0;;;5.54;83.69
37420;BME280;47344;52.374;4.816;2023-01-19T08:52:51;100369.0;;;5.5;84.62
37420;BME280;47344;52.374;4.816;2023-01-19T08:54:30;100374.0;;;5.58;84.54
37420;BME280;47344;52.374;4.816;2023-01-19T08:56:12;100377.0;;;5.6;84.7
37420;BME280;47344;52.374;4.816;2023-01-19T08:57:50;100380.0;;;5.63;84.9
37420;BME280;47344;52.374;4.816;2023-01-19T09:01:03;100378.0;;;5.57;84.97
37420;BME280;47344;52.374;4.816;2023-01-19T09:02:40;100380.0;;;5.59;84.89
37420;BME280;47344;52.374;4.816;2023-01-19T09:04:16;100380.0;;;5.53;84.62
37420;BME280;47344;52.374;4.816;2023-01-19T09:07:29;100381.0;;;5.56;83.95
37420;BME280;47344;52.374;4.816;2023-01-19T09:09:05;100381.0;;;5.57;85.09
37420;BME280;47344;52.374;4.816;2023-01-19T09:10:45;100386.0;;;5.59;84.55
37420;BME280;47344;52.374;4.816;2023-01-19T09:13:58;100395.0;;;5.44;81.73
37420;BME280;47344;52.374;4.816;2023-01-19T09:15:35;100392.0;;;5.53;81.96
37420;BME280;47344;52.374;4.816;2023-01-19T09:17:13;100392.0;;;5.68;80.28
37420;BME280;47344;52.374;4.816;2023-01-19T09:18:49;100394.0;;;5.68;78.53
37420;BME280;47344;52.374;4.816;2023-01-19T09:22:01;100400.0;;;5.74;78.19
37420;BME280;47344;52.374;4.816;2023-01-19T09:23:38;100400.0;;;5.7;77.94
37420;BME280;47344;52.374;4.816;2023-01-19T09:25:14;100407.0;;;5.83;77.16
37420;BME280;47344;52.374;4.816;2023-01-19T09:28:27;100397.0;;;5.63;76.31
37420;BME280;47344;52.374;4.816;2023-01-19T09:30:05;100405.0;;;5.62;76.74
37420;BME280;47344;52.374;4.816;2023-01-19T09:31:43;100403.0;;;5.75;77.19
37420;BME280;47344;52.374;4.816;2023-01-19T09:34:56;100397.0;;;5.71;75.84
37420;BME280;47344;52.374;4.816;2023-01-19T09:36:34;100401.0;;;5.74;75.92
37420;BME280;47344;52.374;4.816;2023-01-19T09:38:12;100407.0;;;5.78;75.22
37420;BME280;47344;52.374;4.816;2023-01-19T09:39:48;100402.0;;;5.8;73.72
37420;BME280;47344;52.374;4.816;2023-01-19T09:43:11;100407.0;;;5.75;72.11
37420;BME280;47344;52.374;4.816;2023-01-19T09:44:49;100412.0;;;5.7;70.94
37420;BME280;47344;52.374;4.816;2023-01-19T09:46:31;100413.0;;;5.7;70.34
37420;BME280;47344;52.374;4.816;2023-01-19T09:48:23;100418.0;;;5.74;69.95
37420;BME280;47344;52.374;4.816;2023-01-19T09:51:51;100415.0;;;5.79;69.49
37420;BME280;47344;52.374;4.816;2023-01-19T09:53:38;100414.0;;;5.83;69.27
37420;BME280;47344;52.374;4.816;2023-01-19T09:55:26;100419.0;;;5.76;68.02
37420;BME280;47344;52.374;4.816;2023-01-19T09:57:04;100424.0;;;5.91;69.78
37420;BME280;47344;52.374;4.816;2023-01-19T09:58:46;100422.0;;;5.92;69.33
37420;BME280;47344;52.374;4.816;2023-01-19T10:02:13;100420.0;;;5.88;66.74
37420;BME280;47344;52.374;4.816;2023-01-19T10:04:15;100427.0;;;5.92;67.27
37420;BME280;47344;52.374;4.816;2023-01-19T10:06:00;100426.0;;;5.85;66.8
37420;BME280;47344;52.374;4.816;2023-01-19T10:07:47;100426.0;;;5.81;67.22
37420;BME280;47344;52.374;4.816;2023-01-19T10:09:32;100425.0;;;5.88;68.99
37420;BME280;47344;52.374;4.816;2023-01-19T10:11:18;100430.0;;;5.94;69.77
37420;BME280;47344;52.374;4.816;2023-01-19T10:15:16;100423.0;;;5.9;68.47
37420;BME280;47344;52.374;4.816;2023-01-19T10:17:12;100430.0;;;6.06;69.19
37420;BME280;47344;52.374;4.816;2023-01-19T10:18:57;100433.0;;;6.1;68.81
37420;BME280;47344;52.374;4.816;2023-01-19T10:20:37;100434.0;;;6.13;69.97
37420;BME280;47344;52.374;4.816;2023-01-19T10:22:19;100430.0;;;6.15;70.69
37420;BME280;47344;52.374;4.816;2023-01-19T10:24:03;100432.0;;;6.1;69.73
37420;BME280;47344;52.374;4.816;2023-01-19T10:25:42;100437.0;;;6.24;71.02
37420;BME280;47344;52.374;4.816;2023-01-19T10:29:04;100433.0;;;6.19;72.66
37420;BME280;47344;52.374;4.816;2023-01-19T10:30:43;100431.0;;;6.25;71.99
37420;BME280;47344;52.374;4.816;2023-01-19T10:32:24;100436.0;;;6.23;72.27
37420;BME280;47344;52.374;4.816;2023-01-19T10:34:06;100436.0;;;6.25;72.22
37420;BME280;47344;52.374;4.816;2023-01-19T10:37:29;100434.0;;;6.3;71.38
37420;BME280;47344;52.374;4.816;2023-01-19T10:39:10;100443.0;;;6.41;70.97
37420;BME280;47344;52.374;4.816;2023-01-19T10:40:56;100439.0;;;6.35;69.11
37420;BME280;47344;52.374;4.816;2023-01-19T10:42:32;100441.0;;;6.34;68.69
37420;BME280;47344;52.374;4.816;2023-01-19T10:45:59;100446.0;;;6.29;68.67
37420;BME280;47344;52.374;4.816;2023-01-19T10:47:38;100447.0;;;6.39;69.39
37420;BME280;47344;52.374;4.816;2023-01-19T10:49:22;100451.0;;;6.39;67.58
37420;BME280;47344;52.374;4.816;2023-01-19T10:51:01;100445.0;;;6.35;67.37
37420;BME280;47344;52.374;4.816;2023-01-19T10:54:18;100443.0;;;6.16;67.55
37420;BME280;47344;52.374;4.816;2023-01-19T10:56:11;100444.0;;;6.27;67.94
37420;BME280;47344;52.374;4.816;2023-01-19T10:57:49;100445.0;;;6.21;67.97
37420;BME280;47344;52.374;4.816;2023-01-19T10:59:30;100446.0;;;6.36;69.49
37420;BME280;47344;52.374;4.816;2023-01-19T11:02:52;100443.0;;;6.35;69.53
37420;BME280;47344;52.374;4.816;2023-01-19T11:04:28;100446.0;;;6.31;70.3
37420;BME280;47344;52.374;4.816;2023-01-19T11:06:19;100455.0;;;6.27;70.3
37420;BME280;47344;52.374;4.816;2023-01-19T11:07:56;100450.0;;;6.35;71.09
37420;BME280;47344;52.374;4.816;2023-01-19T11:11:12;100451.0;;;6.37;70.53
37420;BME280;47344;52.374;4.816;2023-01-19T11:12:59;100455.0;;;6.33;69.81
37420;BME280;47344;52.374;4.816;2023-01-19T11:14:36;100449.0;;;6.53;71.42
37420;BME280;47344;52.374;4.816;2023-01-19T11:16:24;100451.0;;;6.46;72.27
37420;BME280;47344;52.374;4.816;2023-01-19T11:18:02;100455.0;;;6.34;72.69
37420;BME280;47344;52.374;4.816;2023-01-19T11:21:16;100455.0;;;6.37;74.56
37420;BME280;47344;52.374;4.816;2023-01-19T11:23:17;100458.0;;;6.34;75.2
37420;BME280;47344;52.374;4.816;2023-01-19T11:24:57;100456.0;;;6.25;75.7
37420;BME280;47344;52.374;4.816;2023-01-19T11:26:39;100456.0;;;6.15;75.88
37420;BME280;47344;52.374;4.816;2023-01-19T11:30:05;100457.0;;;6.18;75.03
37420;BME280;47344;52.374;4.816;2023-01-19T11:31:42;100455.0;;;6.2;75.8
37420;BME280;47344;52.374;4.816;2023-01-19T11:33:24;100455.0;;;6.24;76.94
37420;BME280;47344;52.374;4.816;2023-01-19T11:35:27;100449.0;;;6.26;76.33